Time;durP1;ratioP1;P1;durP2;ratioP2;P2;SDS_P1;SDS_P2;PMS_P1;PMS_P2;Temp;Humidity;BMP_temperature;BMP_pressure;BME280_temperature;BME280_humidity;BME280_pressure;Samples;Min_cycle;Max_cycle;Signal;HPM_P1;HPM_P2
2022/07/05 00:01:50;;;;;;;2.35;1.33;;;;;;;24.68;38.42;98883.00;5030821;28;20034;-69
2022/07/05 00:04:15;;;;;;;4.30;1.63;;;;;;;24.63;38.41;98880.94;5031751;28;20091;-69
2022/07/05 00:07:17;;;;;;;5.95;1.70;;;;;;;24.66;38.21;98869.88;5030761;28;20033;-68
2022/07/05 00:09:26;;;;;;;1.88;1.40;;;;;;;24.68;38.19;98875.81;5017143;28;20068;-68
2022/07/05 00:11:52;;;;;;;4.22;1.50;;;;;;;24.65;38.24;98873.56;5031076;28;20073;-69
2022/07/05 00:14:17;;;;;;;3.05;1.23;;;;;;;24.63;38.36;98872.13;5014012;28;20050;-68
2022/07/05 00:16:43;;;;;;;3.97;1.60;;;;;;;24.59;37.97;98870.88;5017974;28;20029;-68
2022/07/05 00:19:08;;;;;;;2.85;1.48;;;;;;;24.60;38.06;98862.69;5034444;28;20038;-67
2022/07/05 00:21:33;;;;;;;3.03;1.25;;;;;;;24.61;37.90;98867.00;5034091;28;20034;-66
2022/07/05 00:23:59;;;;;;;7.65;1.63;;;;;;;24.57;38.01;98868.44;5035177;28;20037;-67
2022/07/05 00:26:25;;;;;;;2.67;1.50;;;;;;;24.53;37.96;98862.66;5035587;28;20029;-67
2022/07/05 00:28:50;;;;;;;2.75;1.30;;;;;;;24.51;37.93;98863.88;5035504;28;20037;-66
2022/07/05 00:31:15;;;;;;;3.00;1.50;;;;;;;24.49;37.96;98852.59;5033954;28;20048;-66
2022/07/05 00:33:41;;;;;;;3.53;1.80;;;;;;;24.46;37.89;98855.66;5035478;28;20045;-66
2022/07/05 00:36:07;;;;;;;2.92;1.60;;;;;;;24.42;37.61;98843.78;5035203;28;20033;-66
2022/07/05 00:38:32;;;;;;;2.88;1.50;;;;;;;24.36;37.86;98853.41;5017996;28;20112;-66
2022/07/05 00:40:58;;;;;;;7.55;1.70;;;;;;;24.31;37.96;98846.00;5034134;28;20030;-66
2022/07/05 00:43:23;;;;;;;3.75;1.50;;;;;;;24.34;37.63;98842.94;5035347;28;20037;-66
2022/07/05 00:45:49;;;;;;;2.78;1.40;;;;;;;24.34;37.57;98837.59;5035192;28;20377;-66
2022/07/05 00:48:14;;;;;;;2.72;1.42;;;;;;;24.31;37.12;98842.53;5017452;28;20037;-66
2022/07/05 00:50:40;;;;;;;2.78;1.55;;;;;;;24.25;36.98;98838.81;5035231;28;20035;-66
2022/07/05 00:53:05;;;;;;;2.35;1.50;;;;;;;24.24;37.12;98825.69;5001364;28;20045;-65
2022/07/05 00:55:31;;;;;;;3.85;2.00;;;;;;;24.27;37.00;98830.63;5034509;28;20037;-65
2022/07/05 00:57:56;;;;;;;4.20;2.03;;;;;;;24.32;36.84;98831.66;5034760;28;20029;-68
2022/07/05 01:00:22;;;;;;;4.25;1.50;;;;;;;24.30;36.77;98820.34;5017254;28;20045;-65
2022/07/05 01:02:48;;;;;;;4.25;1.67;;;;;;;24.26;36.80;98831.63;5034483;28;20037;-66
2022/07/05 01:05:14;;;;;;;2.47;1.52;;;;;;;24.23;36.59;98827.53;5033468;28;20495;-66
2022/07/05 01:07:39;;;;;;;4.43;1.90;;;;;;;24.18;36.49;98833.47;5033368;28;20034;-66
2022/07/05 01:10:05;;;;;;;3.13;1.70;;;;;;;24.24;36.59;98823.03;5034335;28;20025;-67
2022/07/05 01:12:31;;;;;;;5.53;1.70;;;;;;;24.27;36.32;98823.44;5033344;28;20046;-66
2022/07/05 01:14:57;;;;;;;5.07;1.95;;;;;;;24.29;35.84;98817.88;5033633;28;20056;-66
2022/07/05 01:17:22;;;;;;;2.92;1.63;;;;;;;24.25;35.74;98820.16;5033344;28;20083;-66
2022/07/05 01:19:48;;;;;;;2.65;1.88;;;;;;;24.18;35.44;98806.00;5032980;28;20045;-66
2022/07/05 01:22:18;;;;;;;4.72;1.75;;;;;;;24.22;35.29;98809.88;5016533;28;20033;-66
2022/07/05 01:24:45;;;;;;;5.78;1.90;;;;;;;24.23;34.80;98810.69;5017041;28;20026;-66
2022/07/05 01:27:11;;;;;;;2.97;1.70;;;;;;;24.20;34.83;98806.59;5000074;28;20389;-66
2022/07/05 01:29:36;;;;;;;2.63;1.67;;;;;;;24.19;34.49;98813.81;5032912;28;20029;-66
2022/07/05 01:32:02;;;;;;;4.95;1.98;;;;;;;24.15;34.91;98814.41;5033007;28;20037;-66
2022/07/05 01:34:27;;;;;;;3.85;2.22;;;;;;;24.14;34.76;98816.22;5034173;28;20072;-66
2022/07/05 01:36:53;;;;;;;3.75;2.20;;;;;;;24.14;34.48;98829.56;5033932;28;20113;-67
2022/07/05 01:39:18;;;;;;;2.75;1.90;;;;;;;24.15;34.55;98833.06;5032875;28;20170;-66
2022/07/05 01:41:44;;;;;;;4.88;2.00;;;;;;;24.17;34.42;98831.00;5032798;28;20416;-67
2022/07/05 01:44:10;;;;;;;4.20;1.90;;;;;;;24.14;34.07;98831.41;5033973;28;20400;-67
2022/07/05 01:46:37;;;;;;;3.20;2.08;;;;;;;24.11;34.58;98829.16;5016229;28;20116;-67
2022/07/05 01:49:04;;;;;;;3.95;1.80;;;;;;;24.08;34.75;98835.72;5016386;28;20028;-67
2022/07/05 01:51:36;;;;;;;4.70;2.10;;;;;;;24.05;34.72;98827.28;5016230;28;20052;-67
2022/07/05 01:54:02;;;;;;;3.58;2.30;;;;;;;24.02;34.83;98829.34;5000878;28;20179;-67
2022/07/05 01:56:27;;;;;;;4.07;2.00;;;;;;;23.96;34.65;98824.81;5032370;28;20071;-67
2022/07/05 01:58:53;;;;;;;3.50;1.83;;;;;;;23.93;34.55;98824.41;5033610;28;20029;-67
2022/07/05 02:01:32;;;;;;;3.03;1.90;;;;;;;23.90;34.49;98828.28;5032432;28;20477;-67
2022/07/05 02:03:57;;;;;;;3.75;1.90;;;;;;;23.88;34.59;98824.19;5032305;28;20025;-67
2022/07/05 02:06:23;;;;;;;3.55;2.17;;;;;;;23.86;34.35;98815.56;5034193;28;20079;-67
2022/07/05 02:08:48;;;;;;;3.30;1.98;;;;;;;23.90;34.21;98814.97;5033273;28;20025;-67
2022/07/05 02:11:13;;;;;;;2.97;2.00;;;;;;;23.88;34.14;98818.84;5033156;28;20033;-67
2022/07/05 02:13:39;;;;;;;2.70;1.98;;;;;;;23.87;34.74;98825.22;5033172;28;20053;-67
2022/07/05 02:16:04;;;;;;;4.88;2.10;;;;;;;23.85;34.77;98828.09;5033047;28;20083;-67
2022/07/05 02:18:30;;;;;;;3.55;2.17;;;;;;;23.87;34.55;98831.34;5033113;28;20044;-67
2022/07/05 02:20:55;;;;;;;3.45;1.90;;;;;;;23.89;34.20;98839.16;5033008;28;20477;-67
2022/07/05 02:23:21;;;;;;;4.18;1.70;;;;;;;23.88;34.19;98835.69;5033394;28;20033;-66
2022/07/05 02:25:46;;;;;;;3.00;1.73;;;;;;;23.86;34.07;98839.56;5033305;28;20099;-66
2022/07/05 02:28:12;;;;;;;5.88;1.60;;;;;;;23.87;34.50;98835.88;5033394;28;20495;-66
2022/07/05 02:30:37;;;;;;;5.05;2.00;;;;;;;23.89;34.54;98842.63;5031909;28;20025;-66
2022/07/05 02:33:03;;;;;;;2.13;1.70;;;;;;;23.87;34.17;98842.03;5032972;28;20044;-67
2022/07/05 02:35:28;;;;;;;2.90;1.80;;;;;;;23.81;34.36;98838.28;5033435;28;20045;-66
2022/07/05 02:37:53;;;;;;;6.18;1.90;;;;;;;23.81;34.31;98843.59;5032498;28;20447;-67
2022/07/05 02:40:19;;;;;;;2.70;1.75;;;;;;;23.83;34.62;98846.06;5032836;28;20037;-67
2022/07/05 02:42:44;;;;;;;5.32;1.90;;;;;;;23.80;34.70;98846.50;5032840;28;20056;-66
2022/07/05 02:45:10;;;;;;;2.15;1.60;;;;;;;23.73;34.46;98843.78;5032817;28;20167;-66
2022/07/05 02:47:35;;;;;;;2.97;1.75;;;;;;;23.71;34.68;98840.50;5031526;28;20514;-66
2022/07/05 02:50:05;;;;;;;4.65;1.50;;;;;;;23.74;34.47;98832.13;5031605;28;20029;-66
2022/07/05 02:52:30;;;;;;;3.90;1.65;;;;;;;23.82;34.56;98839.13;5031706;28;20047;-66
2022/07/05 02:54:56;;;;;;;3.65;1.83;;;;;;;23.84;34.47;98845.91;5032653;28;20025;-66
2022/07/05 02:57:21;;;;;;;3.20;1.77;;;;;;;23.79;34.45;98832.31;5032310;28;20025;-67
2022/07/05 02:59:47;;;;;;;3.45;1.90;;;;;;;23.79;34.26;98840.31;5031452;28;20496;-65
2022/07/05 03:02:12;;;;;;;8.02;1.90;;;;;;;23.80;34.19;98835.84;5032505;28;20095;-65
2022/07/05 03:04:37;;;;;;;6.72;1.67;;;;;;;23.77;34.21;98838.91;5031343;28;20036;-65
2022/07/05 03:07:03;;;;;;;6.63;2.00;;;;;;;23.86;34.12;98839.56;5032485;28;20037;-66
2022/07/05 03:09:29;;;;;;;3.95;1.90;;;;;;;24.07;33.84;98841.25;5014809;28;20538;-66
2022/07/05 03:11:54;;;;;;;5.43;2.00;;;;;;;24.34;33.26;98850.94;5031686;28;20469;-66
2022/07/05 03:14:20;;;;;;;3.35;1.73;;;;;;;24.56;32.69;98845.44;5032367;28;20065;-66
2022/07/05 03:16:45;;;;;;;8.07;1.85;;;;;;;24.79;32.40;98850.34;5031081;28;20413;-65
2022/07/05 03:19:11;;;;;;;3.08;1.83;;;;;;;25.01;32.09;98840.25;5032328;28;20528;-68
2022/07/05 03:21:36;;;;;;;3.85;1.67;;;;;;;25.39;32.67;98844.13;5014880;28;20041;-67
2022/07/05 03:24:02;;;;;;;7.72;2.05;;;;;;;25.93;32.77;98844.69;5031006;28;20412;-68
2022/07/05 03:26:27;;;;;;;10.23;1.98;;;;;;;26.39;30.64;98846.28;5031202;28;20029;-68
2022/07/05 03:28:53;;;;;;;7.72;2.03;;;;;;;26.80;31.37;98839.59;5014431;28;20481;-69
2022/07/05 03:31:18;;;;;;;6.07;1.80;;;;;;;27.32;30.14;98841.16;5032136;28;20025;-67
2022/07/05 03:33:43;;;;;;;4.82;1.80;;;;;;;27.90;29.05;98842.53;5032168;28;20038;-70
2022/07/05 03:36:09;;;;;;;6.85;1.58;;;;;;;28.46;28.10;98840.47;5030897;28;20041;-67
2022/07/05 03:38:36;;;;;;;56.15;2.72;;;;;;;28.96;27.64;98832.00;5032379;28;20022;-67
2022/07/05 03:41:01;;;;;;;25.20;3.13;;;;;;;29.49;27.07;98832.84;5032129;28;20088;-68
2022/07/05 03:43:27;;;;;;;20.20;2.20;;;;;;;30.06;26.35;98831.25;5030899;28;20084;-69
2022/07/05 03:45:54;;;;;;;11.40;1.80;;;;;;;30.21;25.58;98830.72;5032009;28;20025;-69
2022/07/05 03:48:20;;;;;;;5.03;2.78;;;;;;;30.29;25.12;98827.63;5030810;28;20040;-67
2022/07/05 03:50:45;;;;;;;7.28;2.28;;;;;;;30.44;24.33;98816.31;5034360;28;20029;-67
2022/07/05 03:53:11;;;;;;;4.25;1.80;;;;;;;30.64;24.27;98816.63;5036280;28;20029;-67
2022/07/05 03:55:36;;;;;;;3.28;1.80;;;;;;;30.89;24.22;98818.06;5035691;28;20087;-67
2022/07/05 03:58:01;;;;;;;4.40;1.48;;;;;;;31.16;23.46;98814.69;5034677;28;20037;-67
2022/07/05 04:00:27;;;;;;;4.60;1.60;;;;;;;31.50;23.08;98810.00;5035809;28;20400;-67
2022/07/05 04:02:52;;;;;;;3.80;1.80;;;;;;;31.80;23.38;98806.03;5035699;28;20047;-67
2022/07/05 04:05:18;;;;;;;4.63;1.58;;;;;;;32.15;22.77;98804.75;5034625;28;20036;-67
2022/07/05 04:07:54;;;;;;;3.65;1.60;;;;;;;32.58;23.08;98808.31;5035590;28;20030;-67
2022/07/05 04:10:20;;;;;;;9.55;2.40;;;;;;;32.98;22.23;98812.34;5001727;28;20025;-67
2022/07/05 04:12:45;;;;;;;3.17;1.90;;;;;;;33.33;21.97;98805.50;5034296;28;20045;-67
2022/07/05 04:15:11;;;;;;;3.65;1.52;;;;;;;33.71;21.91;98806.19;5034646;28;20038;-67
2022/07/05 04:17:55;;;;;;;5.63;1.85;;;;;;;34.01;21.40;98812.75;5035562;28;20526;-67
2022/07/05 04:20:21;;;;;;;4.82;1.70;;;;;;;34.41;20.29;98811.16;5034435;28;20432;-67
2022/07/05 04:22:47;;;;;;;6.30;1.50;;;;;;;34.83;19.66;98805.72;5034296;28;20122;-67
2022/07/05 04:25:19;;;;;;;3.85;1.52;;;;;;;35.17;19.75;98803.16;5001607;28;20113;-67
2022/07/05 04:27:49;;;;;;;7.20;1.70;;;;;;;35.62;19.58;98801.31;5034708;28;20171;-67
2022/07/05 04:30:14;;;;;;;6.07;1.70;;;;;;;35.98;19.03;98806.56;5001427;28;20022;-67
2022/07/05 04:32:40;;;;;;;5.93;1.85;;;;;;;36.35;19.26;98798.94;5035212;28;20477;-67
2022/07/05 04:35:06;;;;;;;4.22;1.60;;;;;;;36.80;18.81;98798.81;5035232;28;20120;-67
2022/07/05 04:37:31;;;;;;;6.70;1.60;;;;;;;37.14;18.11;98803.31;5035111;28;20540;-68
2022/07/05 04:39:57;;;;;;;4.70;1.90;;;;;;;37.52;17.18;98797.94;5035109;28;20022;-68
2022/07/05 04:42:22;;;;;;;5.80;1.60;;;;;;;38.02;16.42;98803.78;5035028;28;20064;-66
2022/07/05 04:44:47;;;;;;;7.32;1.70;;;;;;;38.28;16.23;98804.19;5034796;28;20029;-66
2022/07/05 04:47:13;;;;;;;7.53;1.70;;;;;;;38.69;16.36;98808.13;5034867;28;20033;-68
2022/07/05 04:49:39;;;;;;;13.48;1.83;;;;;;;39.03;15.54;98806.91;5033517;28;20026;-68
2022/07/05 04:52:04;;;;;;;6.55;1.77;;;;;;;39.37;15.22;98805.72;5033552;28;20148;-68
2022/07/05 04:54:30;;;;;;;9.52;1.85;;;;;;;39.62;14.89;98796.16;5033434;28;20056;-69
2022/07/05 04:56:55;;;;;;;5.68;2.03;;;;;;;39.98;14.50;98801.63;5036129;28;20415;-66
2022/07/05 04:59:20;;;;;;;4.25;1.50;;;;;;;40.40;15.03;98800.59;5042779;28;20037;-67
2022/07/05 05:01:46;;;;;;;16.20;1.70;;;;;;;40.94;14.15;98800.56;5035367;28;20030;-67
2022/07/05 05:04:11;;;;;;;9.43;1.60;;;;;;;41.48;13.61;98805.84;5034442;28;20538;-69
2022/07/05 05:06:37;;;;;;;6.72;1.52;;;;;;;42.08;13.47;98813.28;5021733;28;20036;-68
2022/07/05 05:09:02;;;;;;;7.25;1.80;;;;;;;42.51;12.96;98814.34;5045129;28;20044;-67
2022/07/05 05:11:28;;;;;;;6.50;2.00;;;;;;;42.97;12.48;98810.00;5036399;28;20552;-68
2022/07/05 05:13:54;;;;;;;4.50;1.50;;;;;;;43.33;12.10;98814.16;5019933;28;20060;-68
2022/07/05 05:16:19;;;;;;;9.53;1.63;;;;;;;43.76;11.55;98806.72;5016654;28;20503;-69
2022/07/05 05:18:45;;;;;;;6.07;1.70;;;;;;;44.17;11.42;98815.25;5016587;28;20021;-67
2022/07/05 05:21:10;;;;;;;6.93;1.97;;;;;;;44.43;10.80;98817.75;5034108;28;20099;-66
2022/07/05 05:23:36;;;;;;;9.10;1.50;;;;;;;44.80;10.52;98813.13;5032892;28;20033;-66
2022/07/05 05:26:01;;;;;;;4.83;1.80;;;;;;;45.12;10.62;98818.06;5033463;28;20048;-66
2022/07/05 05:28:27;;;;;;;6.63;1.70;;;;;;;45.39;9.93;98821.25;5033363;28;20060;-65
2022/07/05 05:30:52;;;;;;;9.53;1.70;;;;;;;45.53;9.85;98827.19;5032868;28;20401;-66
2022/07/05 05:33:17;;;;;;;3.10;1.33;;;;;;;45.87;9.98;98830.56;5034155;28;20033;-66
2022/07/05 05:35:43;;;;;;;4.33;1.67;;;;;;;45.95;9.24;98834.34;5034100;28;20033;-66
2022/07/05 05:38:08;;;;;;;7.23;1.80;;;;;;;46.22;8.97;98830.75;5034019;28;20029;-66
2022/07/05 05:40:34;;;;;;;4.80;1.70;;;;;;;46.41;8.96;98821.78;5016247;28;20401;-66
2022/07/05 05:43:00;;;;;;;4.17;1.57;;;;;;;46.72;9.35;98828.50;5030102;28;20032;-68
2022/07/05 05:45:25;;;;;;;6.20;1.60;;;;;;;46.72;9.24;98839.56;5041942;28;20029;-66
2022/07/05 05:47:51;;;;;;;7.53;1.73;;;;;;;46.89;8.92;98841.16;5017670;28;20473;-66
2022/07/05 05:50:28;;;;;;;9.02;1.88;;;;;;;47.08;9.01;98837.69;4995714;28;20559;-66
2022/07/05 05:52:54;;;;;;;11.35;2.08;;;;;;;47.25;9.14;98836.47;4995475;28;20048;-69
2022/07/05 05:55:19;;;;;;;9.97;1.77;;;;;;;47.39;8.98;98844.31;5012300;28;20041;-67
2022/07/05 05:57:45;;;;;;;9.07;1.70;;;;;;;47.45;8.57;98842.84;5032600;28;20116;-67
2022/07/05 06:00:11;;;;;;;7.93;1.90;;;;;;;47.53;8.80;98838.28;5032746;28;20049;-69
2022/07/05 06:02:36;;;;;;;8.98;1.75;;;;;;;47.52;8.80;98842.19;5031428;28;20033;-66
2022/07/05 06:05:02;;;;;;;6.87;2.07;;;;;;;47.59;8.68;98845.13;5032348;28;20065;-66
2022/07/05 06:07:28;;;;;;;8.80;1.80;;;;;;;47.67;8.99;98848.88;5047959;28;20117;-66
2022/07/05 06:09:53;;;;;;;6.17;1.67;;;;;;;47.73;9.17;98852.13;5032870;28;20045;-67
2022/07/05 06:12:19;;;;;;;6.77;1.80;;;;;;;47.78;8.74;98841.59;5031416;28;20033;-67
2022/07/05 06:14:44;;;;;;;7.10;1.80;;;;;;;47.73;9.22;98847.44;5031073;28;20029;-66
2022/07/05 06:17:09;;;;;;;6.97;1.73;;;;;;;47.69;8.97;98848.53;5031663;28;20048;-68
2022/07/05 06:19:35;;;;;;;13.50;1.70;;;;;;;47.54;9.38;98850.13;5033339;28;20022;-67
2022/07/05 06:22:00;;;;;;;13.97;1.70;;;;;;;47.43;9.44;98842.44;5032170;28;20041;-66
2022/07/05 06:24:26;;;;;;;7.93;1.90;;;;;;;47.41;9.42;98841.97;5032889;28;20104;-66
2022/07/05 06:26:51;;;;;;;13.17;2.00;;;;;;;47.38;8.94;98839.97;5033166;28;20404;-66
2022/07/05 06:29:17;;;;;;;5.33;1.30;;;;;;;47.38;8.88;98833.59;5033124;28;20036;-65
2022/07/05 06:31:42;;;;;;;8.47;1.70;;;;;;;47.27;9.15;98836.91;5032114;28;20029;-66
2022/07/05 06:34:08;;;;;;;7.10;1.70;;;;;;;47.02;10.79;98835.53;5032860;28;20032;-67
2022/07/05 06:36:33;;;;;;;8.60;1.70;;;;;;;46.84;9.67;98838.66;5032871;28;20037;-67
2022/07/05 06:38:59;;;;;;;7.60;1.60;;;;;;;46.84;10.19;98841.41;5032841;28;20033;-68
2022/07/05 06:41:24;;;;;;;4.83;1.50;;;;;;;46.83;9.50;98834.28;5014958;28;20128;-75
2022/07/05 06:43:49;;;;;;;11.33;1.73;;;;;;;46.79;9.62;98830.63;5015668;28;20044;-75
2022/07/05 06:46:15;;;;;;;6.60;1.70;;;;;;;46.76;9.98;98829.41;4999456;28;20052;-79
2022/07/05 06:48:40;;;;;;;10.07;2.00;;;;;;;46.72;9.68;98833.25;4998769;28;20029;-76
2022/07/05 06:51:06;;;;;;;5.27;1.70;;;;;;;46.68;10.17;98835.09;5032479;28;20037;-76
2022/07/05 06:53:31;;;;;;;5.30;1.70;;;;;;;46.65;10.07;98835.81;5032946;28;20025;-76
2022/07/05 06:55:57;;;;;;;11.33;1.73;;;;;;;46.52;9.80;98832.31;5032930;28;20040;-75
2022/07/05 06:58:22;;;;;;;10.23;2.07;;;;;;;46.37;10.74;98828.38;5031260;28;20395;-76
2022/07/05 07:00:48;;;;;;;9.00;2.00;;;;;;;46.18;10.40;98827.13;5032000;28;20061;-76
2022/07/05 07:03:13;;;;;;;6.97;2.00;;;;;;;46.10;10.53;98830.00;5031447;28;20037;-75
2022/07/05 07:05:39;;;;;;;11.13;1.90;;;;;;;46.00;10.20;98828.56;5032687;28;20041;-76
2022/07/05 07:11:05;;;;;;;9.07;1.70;;;;;;;45.50;10.01;98816.91;4999283;28;20044;-78
2022/07/05 07:13:31;;;;;;;6.87;1.90;;;;;;;45.46;10.56;98818.72;5010531;28;20390;-77
2022/07/05 07:15:56;;;;;;;9.83;1.87;;;;;;;45.41;10.53;98822.53;5010671;28;20034;-77
2022/07/05 07:18:22;;;;;;;6.00;2.40;;;;;;;45.38;11.07;98827.91;4993661;28;20562;-77
2022/07/05 07:20:47;;;;;;;6.00;2.07;;;;;;;45.32;11.15;98828.13;5010300;28;20037;-76
2022/07/05 07:23:13;;;;;;;9.03;1.90;;;;;;;45.26;11.06;98828.72;4992682;28;20046;-77
2022/07/05 07:25:38;;;;;;;6.37;1.43;;;;;;;45.11;10.75;98831.03;5010413;28;20088;-78
2022/07/05 07:28:05;;;;;;;9.37;1.73;;;;;;;45.03;11.02;98831.97;5010399;28;20460;-75
2022/07/05 07:30:30;;;;;;;6.38;1.75;;;;;;;44.98;11.50;98832.19;5005721;28;20045;-77
2022/07/05 07:32:56;;;;;;;12.43;1.60;;;;;;;44.91;11.29;98829.19;5010281;28;20052;-78
2022/07/05 07:35:21;;;;;;;14.43;2.20;;;;;;;44.88;11.57;98825.16;4993952;28;20034;-77
2022/07/05 07:37:47;;;;;;;7.33;1.60;;;;;;;44.84;11.63;98831.72;5009990;28;20033;-75
2022/07/05 07:40:12;;;;;;;5.63;1.73;;;;;;;44.73;11.49;98823.91;5010251;28;20042;-77
2022/07/05 07:42:38;;;;;;;7.03;2.00;;;;;;;44.36;11.41;98818.34;4993811;28;20045;-75
2022/07/05 07:45:04;;;;;;;5.60;1.87;;;;;;;43.54;11.77;98824.38;5011281;28;20116;-75
2022/07/05 07:47:33;;;;;;;12.30;2.00;;;;;;;43.50;11.62;98820.69;5006193;28;20104;-74
2022/07/05 07:49:59;;;;;;;5.70;1.92;;;;;;;43.61;12.07;98824.63;5021343;28;20431;-76
2022/07/05 07:52:25;;;;;;;7.70;2.00;;;;;;;43.62;12.00;98822.66;5021694;28;20049;-75
2022/07/05 07:54:50;;;;;;;10.53;1.90;;;;;;;43.50;11.87;98817.94;5050795;28;20048;-77
2022/07/05 07:57:16;;;;;;;8.20;2.20;;;;;;;43.28;12.78;98819.81;5051735;28;20464;-75
2022/07/05 07:59:41;;;;;;;6.97;2.00;;;;;;;42.54;13.13;98810.13;5050780;28;20032;-78
2022/07/05 08:02:07;;;;;;;13.30;1.90;;;;;;;42.62;13.10;98820.28;5034361;28;20396;-76
2022/07/05 08:04:32;;;;;;;4.67;1.70;;;;;;;42.65;14.83;98816.88;5050958;28;20484;-76
2022/07/05 08:06:58;;;;;;;9.70;1.57;;;;;;;42.45;13.46;98823.88;5050983;28;20028;-75
2022/07/05 08:09:23;;;;;;;8.32;1.67;;;;;;;42.38;13.40;98823.56;5033781;28;20029;-75
2022/07/05 08:11:49;;;;;;;4.07;1.65;;;;;;;42.32;13.23;98825.69;5034072;28;20037;-73
2022/07/05 08:14:15;;;;;;;4.40;1.50;;;;;;;42.05;13.37;98824.06;5051453;28;20059;-76
2022/07/05 08:16:41;;;;;;;4.60;1.48;;;;;;;42.00;13.48;98824.25;5049872;28;20041;-75
2022/07/05 08:21:50;;;;;;;5.28;1.70;;;;;;;42.09;13.92;98820.38;5036386;28;20047;-75
2022/07/05 08:24:16;;;;;;;3.47;1.55;;;;;;;42.08;13.43;98818.78;5017277;28;20476;-75
2022/07/05 08:26:42;;;;;;;9.97;1.60;;;;;;;42.07;14.08;98817.16;5033935;28;20025;-78
2022/07/05 08:29:09;;;;;;;5.95;1.33;;;;;;;42.00;14.24;98814.09;5033812;28;20102;-76
2022/07/05 08:31:39;;;;;;;;;;;;;;;41.99;14.28;98817.97;5034117;28;20051;-75
2022/07/05 08:34:05;;;;;;;6.93;1.48;;;;;;;41.84;14.38;98813.78;5033677;28;19919;-75
2022/07/05 08:36:30;;;;;;;4.72;1.38;;;;;;;41.66;14.49;98814.91;5051750;28;20045;-76
2022/07/05 08:38:56;;;;;;;6.50;1.70;;;;;;;41.47;14.79;98810.53;5037123;28;20032;-75
2022/07/05 08:41:22;;;;;;;2.63;1.40;;;;;;;41.30;14.90;98814.03;5020801;28;20464;-75
2022/07/05 08:43:48;;;;;;;10.32;1.70;;;;;;;41.33;14.61;98820.81;5037053;28;20125;-76
2022/07/05 08:46:14;;;;;;;4.63;1.60;;;;;;;41.26;14.87;98824.00;5037229;28;20185;-77
2022/07/05 08:48:44;;;;;;;5.78;1.50;;;;;;;41.06;14.97;98819.91;5036945;28;20416;-75
2022/07/05 08:51:13;;;;;;;6.47;1.48;;;;;;;41.01;14.85;98814.59;5037548;28;20025;-76
2022/07/05 08:53:39;;;;;;;5.45;1.58;;;;;;;40.77;15.26;98825.88;5053474;28;20029;-76
2022/07/05 08:56:09;;;;;;;7.43;1.60;;;;;;;40.76;15.10;98821.56;5036759;28;20385;-75
2022/07/05 08:58:35;;;;;;;3.38;1.60;;;;;;;40.59;15.46;98822.28;5036716;28;20049;-76
2022/07/05 09:01:00;;;;;;;4.15;1.63;;;;;;;40.55;15.30;98819.38;5053713;28;20047;-75
2022/07/05 09:03:28;;;;;;;7.63;1.67;;;;;;;40.38;15.81;98816.50;5054507;28;20029;-75
2022/07/05 09:05:56;;;;;;;2.20;1.42;;;;;;;40.15;15.72;98825.53;5020373;28;20025;-75
2022/07/05 09:08:21;;;;;;;4.90;1.60;;;;;;;40.02;16.03;98820.94;5036993;28;20032;-75
2022/07/05 09:10:47;;;;;;;6.47;1.75;;;;;;;39.92;16.36;98823.91;5036420;28;20032;-75
2022/07/05 09:13:12;;;;;;;4.65;1.83;;;;;;;39.90;16.20;98812.44;5036129;28;20428;-74
2022/07/05 09:15:38;;;;;;;3.58;1.83;;;;;;;39.77;16.14;98814.94;5036397;28;20045;-75
2022/07/05 09:18:04;;;;;;;7.47;1.77;;;;;;;39.64;16.54;98804.84;5052991;28;20028;-75
2022/07/05 09:20:30;;;;;;;4.03;1.48;;;;;;;39.49;16.51;98810.63;5052935;28;20035;-75
2022/07/05 09:22:55;;;;;;;4.05;1.70;;;;;;;39.37;16.50;98817.44;5036558;28;20459;-75
2022/07/05 09:25:30;;;;;;;3.92;1.65;;;;;;;39.37;16.47;98814.69;5036450;28;20488;-75
2022/07/05 09:28:03;;;;;;;5.75;2.45;;;;;;;39.23;16.65;98795.59;5036247;28;20033;-75
2022/07/05 09:30:37;;;;;;;5.78;1.48;;;;;;;39.12;17.17;98801.59;5019731;28;20025;-74
2022/07/05 09:33:14;;;;;;;4.82;1.67;;;;;;;39.03;17.18;98791.38;5052708;28;20040;-75
2022/07/05 09:35:43;;;;;;;5.03;1.73;;;;;;;38.90;17.08;98786.72;5052861;28;20032;-77
2022/07/05 09:38:22;;;;;;;7.00;1.60;;;;;;;38.88;17.50;98788.94;5035972;28;20033;-77
2022/07/05 09:40:57;;;;;;;7.40;2.00;;;;;;;38.45;17.40;98786.47;5036218;28;20078;-76
2022/07/05 09:43:23;;;;;;;12.45;2.00;;;;;;;38.24;17.54;98788.72;5052620;28;20025;-75
2022/07/05 09:46:04;;;;;;;4.03;1.73;;;;;;;38.13;17.82;98779.88;5052671;28;20104;-76
2022/07/05 09:48:31;;;;;;;6.95;1.85;;;;;;;38.21;17.86;98779.25;5035621;28;20090;-75
2022/07/05 09:51:09;;;;;;;3.90;1.73;;;;;;;38.31;17.77;98780.97;5035851;28;20093;-75
2022/07/05 09:53:45;;;;;;;3.88;1.70;;;;;;;38.07;17.89;98781.88;5053562;28;20024;-75
2022/07/05 09:56:10;;;;;;;8.00;1.92;;;;;;;38.03;18.06;98785.50;5052200;28;20035;-74
2022/07/05 09:58:36;;;;;;;3.97;1.70;;;;;;;37.96;17.80;98783.97;5052119;28;20025;-76
2022/07/05 10:01:01;;;;;;;3.78;1.80;;;;;;;37.84;17.85;98772.72;5035487;28;20041;-73
2022/07/05 10:03:27;;;;;;;3.22;1.88;;;;;;;37.77;18.16;98772.28;5035559;28;20037;-75
2022/07/05 10:05:52;;;;;;;10.65;2.17;;;;;;;37.71;18.19;98768.81;5052257;28;20044;-74
2022/07/05 10:08:18;;;;;;;6.97;1.75;;;;;;;37.64;18.31;98754.75;5019130;28;20032;-74
2022/07/05 10:10:43;;;;;;;12.73;1.92;;;;;;;37.64;18.14;98760.22;5019058;28;20582;-74
2022/07/05 10:13:09;;;;;;;4.38;1.77;;;;;;;37.56;18.41;98769.84;5051787;28;20124;-77
2022/07/05 10:15:35;;;;;;;3.58;1.90;;;;;;;37.54;18.35;98752.19;5035082;28;20032;-75
2022/07/05 10:18:03;;;;;;;3.25;1.70;;;;;;;37.50;18.38;98757.41;5019063;28;20052;-75
2022/07/05 10:20:32;;;;;;;4.95;1.50;;;;;;;37.37;18.54;98761.69;5053160;28;20025;-75
2022/07/05 10:22:58;;;;;;;3.25;1.80;;;;;;;37.25;18.26;98756.66;5053019;28;20056;-75
2022/07/05 10:25:23;;;;;;;3.58;1.70;;;;;;;37.17;18.43;98751.03;5035125;28;20121;-76
2022/07/05 10:27:53;;;;;;;5.53;1.92;;;;;;;37.05;18.31;98754.16;5035063;28;20055;-75
2022/07/05 10:30:19;;;;;;;4.93;1.63;;;;;;;36.92;18.64;98755.69;5035984;28;20036;-74
2022/07/05 10:32:45;;;;;;;4.68;1.83;;;;;;;36.84;18.93;98757.13;5035285;28;20032;-75
2022/07/05 10:35:10;;;;;;;4.03;1.90;;;;;;;36.74;18.83;98755.34;5035306;28;20040;-75
2022/07/05 10:37:36;;;;;;;3.45;2.05;;;;;;;36.71;18.56;98755.09;5051298;28;20029;-74
2022/07/05 10:40:03;;;;;;;6.90;2.22;;;;;;;36.64;18.83;98747.28;5035050;28;20488;-76
2022/07/05 10:42:40;;;;;;;5.05;1.80;;;;;;;36.52;18.59;98744.97;5034137;28;20041;-74
2022/07/05 10:45:25;;;;;;;5.22;2.00;;;;;;;36.33;18.96;98744.88;5018932;28;20041;-74
2022/07/05 10:48:09;;;;;;;5.97;2.00;;;;;;;36.22;18.48;98735.97;5051536;28;20033;-74
2022/07/05 10:51:13;;;;;;;5.60;1.92;;;;;;;36.11;18.74;98741.81;5052482;28;20063;-74
2022/07/05 10:53:39;;;;;;;6.68;2.03;;;;;;;36.02;18.92;98738.88;5051605;28;20033;-74
2022/07/05 10:56:04;;;;;;;3.72;2.00;;;;;;;35.92;19.18;98737.06;5052312;28;20404;-76
2022/07/05 10:58:34;;;;;;;4.53;1.80;;;;;;;35.89;19.05;98736.84;5051902;28;20025;-75
2022/07/05 11:01:11;;;;;;;5.78;1.63;;;;;;;35.83;19.07;98728.69;5034579;28;20094;-74
2022/07/05 11:03:41;;;;;;;4.55;1.90;;;;;;;35.79;18.83;98724.94;5052636;28;20056;-74
2022/07/05 11:06:07;;;;;;;4.78;1.90;;;;;;;35.75;19.20;98721.16;5034758;28;20059;-75
2022/07/05 11:08:55;;;;;;;4.55;1.90;;;;;;;35.67;19.21;98721.75;5034940;28;20064;-75
2022/07/05 11:11:27;;;;;;;7.60;1.70;;;;;;;35.60;19.49;98716.66;5052329;28;20032;-76
2022/07/05 11:13:55;;;;;;;9.90;2.17;;;;;;;35.48;19.38;98710.75;5017620;28;20049;-76
2022/07/05 11:16:33;;;;;;;5.65;1.90;;;;;;;35.36;19.17;98719.25;5034719;28;20025;-75
2022/07/05 11:19:07;;;;;;;4.45;2.00;;;;;;;35.27;19.13;98715.50;5051232;28;20087;-75
2022/07/05 11:21:32;;;;;;;3.53;1.80;;;;;;;35.11;19.56;98723.69;5034349;28;20033;-76
2022/07/05 11:24:19;;;;;;;5.65;1.92;;;;;;;35.06;19.39;98715.59;5051130;28;20111;-74
2022/07/05 11:26:46;;;;;;;3.38;1.75;;;;;;;35.04;18.85;98711.53;5052003;28;20036;-74
2022/07/05 11:29:42;;;;;;;3.05;1.80;;;;;;;34.96;18.84;98711.03;5017968;28;20091;-74
2022/07/05 11:32:09;;;;;;;7.93;1.95;;;;;;;34.92;18.83;98706.44;5052211;28;20103;-74
2022/07/05 11:34:35;;;;;;;5.17;1.93;;;;;;;34.87;18.98;98707.28;5034227;28;20041;-74
2022/07/05 11:37:16;;;;;;;7.05;1.90;;;;;;;34.83;19.09;98702.69;5050666;28;20041;-75
2022/07/05 11:39:42;;;;;;;8.70;2.35;;;;;;;34.75;19.28;98690.50;5050788;28;20067;-75